Crescent City, CA (95531)

6:50 PM PDT on June 30, 2015 (GMT -0700)
Humboldt Street (Filkins Tract) | | Change Station
CLOSE
Current Station
Personal Weather Station
Location: Crescent City, CA
Elevation: 59 ft
Nearby Weather Stations

Elev 59 ft 41.76 °N, 124.21 °W | Updated 22 seconds ago

Overcast
Overcast
62.8 °F
Feels Like 62.8 °F
N
5.3
Wind Variable Wind from North
Gusts 13.0 mph

Today
High -- | Low -- °F
--% Chance of Precip.
Yesterday
High -- | Low -- °F
Precip. -- in
5:45 AM 8:55 PM
Waxing Gibbous, 99% visible
Pressure 29.89 in
Visibility 3.0 miles
Clouds Overcast 200 ft
Dew Point 57 °F
Humidity 81%
Rainfall 0.00 in
Snow Depth Not available.
UV 1 out of 12
Pollen 7.80 out of 12
Air Quality Not available.
Flu Activity Sporadic
SPECI KCEC 010141Z AUTO 15011KT 3SM BR OVC002 14/13 A2989 RMK AO2 T01390128

More Conditions Fewer Conditions

Pressure 29.89 in
Visibility 3.0 miles
Clouds Overcast 200 ft
Dew Point 57 °F
Humidity 81%
Rainfall 0.00 in
Snow Depth Not available.
UV 1 out of 12
Pollen 7.80 out of 12
Air Quality Not available.
Flu Activity Sporadic
SPECI KCEC 010141Z AUTO 15011KT 3SM BR OVC002 14/13 A2989 RMK AO2 T01390128

More Conditions Fewer Conditions

10-Day Weather Forecast

×

Almanac

Astronomy

Jun. 30, 2015 Rise Set
Actual Time
Civil Twilight
Nautical Twilight
Astronomical Twilight
Moon
Length of Visible Light
Length of Day
Tomorrow will be .
, % of the Moon is Illuminated

Today's Extremes

State Highs State Lows

Community

WunderPhotos

Upload Photos

1,834,088 photos uploaded!

WunderBlogs® & News

Nearby

Air Quality

  Air Quality AQ Index Pollutant
Not available.

Snow Depth

Station Depth Elevation

Earthquake Activity

City Distance Mag. Time & Date
Minimum magnitude displayed is 2.5.

Coastal Water Temperatures

Place Temperature

Stations

Nearby Weather Stations

Station Location Temp. Windchill Dew Point Humidity Wind Precip. Elev Updated Type